createdAt,value
2018-09-15T00:02:00.628Z,93.50
2018-09-15T00:04:29.194Z,93.90
2018-09-15T00:06:57.623Z,94.00
2018-09-15T00:09:26.044Z,94.10
2018-09-15T00:11:54.483Z,94.30
2018-09-15T00:14:22.883Z,94.40
2018-09-15T00:16:51.307Z,94.40
2018-09-15T00:19:19.796Z,94.40
2018-09-15T00:21:48.235Z,94.40
2018-09-15T00:24:16.655Z,94.40
2018-09-15T00:26:45.076Z,94.70
2018-09-15T00:29:13.547Z,94.70
2018-09-15T00:31:41.944Z,95.00
2018-09-15T00:34:10.399Z,95.20
2018-09-15T00:36:38.815Z,95.40
2018-09-15T00:39:09.327Z,95.20
2018-09-15T00:41:37.738Z,95.30
2018-09-15T00:44:06.175Z,95.70
2018-09-15T00:46:34.578Z,95.80
2018-09-15T00:49:03.012Z,95.90
2018-09-15T00:51:31.499Z,96.20
2018-09-15T00:54:00.004Z,96.40
2018-09-15T00:56:28.402Z,96.50
2018-09-15T00:58:56.825Z,96.80
2018-09-15T01:01:25.269Z,97.00
2018-09-15T01:03:53.697Z,96.80
2018-09-15T01:06:22.115Z,96.80
2018-09-15T01:08:50.538Z,96.90
2018-09-15T01:11:18.939Z,96.50
2018-09-15T01:13:47.420Z,96.30
2018-09-15T01:16:15.838Z,96.30
2018-09-15T01:18:44.282Z,96.30
2018-09-15T01:21:13.103Z,96.10
2018-09-15T01:23:41.523Z,95.50
2018-09-15T01:26:09.956Z,95.50
2018-09-15T01:28:38.371Z,95.40
2018-09-15T01:31:06.831Z,95.20
2018-09-15T01:33:35.262Z,94.60
2018-09-15T01:36:03.691Z,94.80
2018-09-15T01:38:32.129Z,94.40
2018-09-15T01:41:00.555Z,94.30
2018-09-15T01:43:28.971Z,94.50
2018-09-15T01:45:57.398Z,94.30
2018-09-15T01:48:25.816Z,94.60
2018-09-15T01:50:54.256Z,94.40
2018-09-15T01:53:22.669Z,94.60
2018-09-15T01:55:51.099Z,94.60
2018-09-15T01:58:19.526Z,94.60
2018-09-15T02:00:47.946Z,93.80
2018-09-15T02:03:16.383Z,93.70
2018-09-15T02:05:44.803Z,93.50
2018-09-15T02:08:13.277Z,93.30
2018-09-15T02:10:41.704Z,93.10
2018-09-15T02:13:10.104Z,93.30
2018-09-15T02:15:38.734Z,93.50
2018-09-15T02:18:07.161Z,93.60
2018-09-15T02:20:35.675Z,93.60
2018-09-15T02:23:04.111Z,93.70
2018-09-15T02:25:32.551Z,93.60
2018-09-15T02:28:01.084Z,93.30
2018-09-15T02:30:29.539Z,93.40
2018-09-15T02:32:58.054Z,93.40
2018-09-15T02:35:26.500Z,93.40
2018-09-15T02:37:54.961Z,93.30
2018-09-15T02:40:23.405Z,93.30
2018-09-15T02:42:51.847Z,93.50
2018-09-15T02:45:20.401Z,93.70
2018-09-15T02:47:48.820Z,93.90
2018-09-15T02:50:17.257Z,94.10
2018-09-15T02:52:45.680Z,94.20
2018-09-15T02:55:14.146Z,94.00
2018-09-15T02:57:42.559Z,94.30
2018-09-15T03:00:11.091Z,94.20
2018-09-15T03:02:39.537Z,94.20
2018-09-15T03:05:07.975Z,94.40
2018-09-15T03:07:36.410Z,94.20
2018-09-15T03:10:04.896Z,94.30
2018-09-15T03:12:33.362Z,94.10
2018-09-15T03:15:01.796Z,94.30
2018-09-15T03:17:30.265Z,94.30
2018-09-15T03:19:58.720Z,94.40
2018-09-15T03:22:27.222Z,94.80
2018-09-15T03:24:55.646Z,94.10
2018-09-15T03:27:24.083Z,93.60
2018-09-15T03:29:52.506Z,92.40
2018-09-15T03:32:20.943Z,91.60
2018-09-15T03:34:49.358Z,90.80
2018-09-15T03:37:17.822Z,90.10
2018-09-15T03:39:46.264Z,88.80
2018-09-15T03:42:14.721Z,88.80
2018-09-15T03:44:43.167Z,88.30
2018-09-15T03:47:11.624Z,88.90
2018-09-15T03:49:40.053Z,88.60
2018-09-15T03:52:08.524Z,88.80
2018-09-15T03:54:36.942Z,88.10
2018-09-15T03:57:05.483Z,87.70
2018-09-15T03:59:33.917Z,87.70
2018-09-15T04:02:02.358Z,87.80
2018-09-15T04:04:31.703Z,87.70
2018-09-15T04:07:00.153Z,87.20
2018-09-15T04:09:28.601Z,87.80
2018-09-15T04:11:57.042Z,88.20
2018-09-15T04:14:25.446Z,88.30
2018-09-15T04:16:53.863Z,88.70
2018-09-15T04:19:22.282Z,88.90
2018-09-15T04:21:50.737Z,89.00
2018-09-15T04:24:19.220Z,89.20
2018-09-15T04:26:47.628Z,89.30
2018-09-15T04:29:16.058Z,88.90
2018-09-15T04:31:44.454Z,88.30
2018-09-15T04:34:12.861Z,88.70
2018-09-15T04:36:41.299Z,88.50
2018-09-15T04:39:11.428Z,88.70
2018-09-15T04:41:40.146Z,88.10
2018-09-15T04:44:08.583Z,88.10
2018-09-15T04:46:37.015Z,88.10
2018-09-15T04:49:05.658Z,86.80
2018-09-15T04:51:34.080Z,86.80
2018-09-15T04:54:02.542Z,86.80
2018-09-15T04:56:30.960Z,85.80
2018-09-15T04:58:59.430Z,85.40
2018-09-15T05:01:27.834Z,85.50
2018-09-15T05:03:56.262Z,84.90
2018-09-15T05:06:24.670Z,85.90
2018-09-15T05:08:53.115Z,84.20
2018-09-15T05:11:21.562Z,84.10
2018-09-15T05:13:49.990Z,84.20
2018-09-15T05:16:18.394Z,84.10
2018-09-15T05:18:46.835Z,83.70
2018-09-15T05:21:15.237Z,83.40
2018-09-15T05:23:43.681Z,83.30
2018-09-15T05:26:12.081Z,83.70
2018-09-15T05:28:40.491Z,83.50
2018-09-15T05:31:08.922Z,83.80
2018-09-15T05:33:37.348Z,83.50
2018-09-15T05:36:05.791Z,84.00
2018-09-15T05:38:34.231Z,83.70
2018-09-15T05:41:02.677Z,83.40
2018-09-15T05:43:31.078Z,83.40
2018-09-15T05:45:59.570Z,82.80
2018-09-15T05:48:27.954Z,82.30
2018-09-15T05:50:56.390Z,83.20
2018-09-15T05:53:24.796Z,82.80
2018-09-15T05:55:53.233Z,83.00
2018-09-15T05:58:21.652Z,83.10
2018-09-15T06:00:50.397Z,83.10
2018-09-15T06:03:18.804Z,83.70
2018-09-15T06:05:47.231Z,84.00
2018-09-15T06:08:15.654Z,84.20
2018-09-15T06:10:44.142Z,84.60
2018-09-15T06:13:12.565Z,84.60
2018-09-15T06:15:41.022Z,84.90
2018-09-15T06:18:09.427Z,84.70
2018-09-15T06:20:37.856Z,85.00
2018-09-15T06:23:06.346Z,84.60
2018-09-15T06:25:34.788Z,84.60
2018-09-15T06:28:03.191Z,84.70
2018-09-15T06:30:31.855Z,84.40
2018-09-15T06:33:00.262Z,83.50
2018-09-15T06:35:28.715Z,82.90
2018-09-15T06:37:57.234Z,82.80
2018-09-15T06:40:25.688Z,83.00
2018-09-15T06:42:54.378Z,81.90
2018-09-15T06:45:22.801Z,82.20
2018-09-15T06:47:51.214Z,83.10
2018-09-15T06:50:19.616Z,84.20
2018-09-15T06:52:48.243Z,84.10
2018-09-15T06:55:16.705Z,83.90
2018-09-15T06:57:45.331Z,83.60
2018-09-15T07:00:13.742Z,82.80
2018-09-15T07:02:42.180Z,83.00
2018-09-15T07:05:10.575Z,82.80
2018-09-15T07:07:39.026Z,82.60
2018-09-15T07:10:07.467Z,80.30
2018-09-15T07:12:35.893Z,79.60
2018-09-15T07:15:04.373Z,78.90
2018-09-15T07:17:32.783Z,78.10
2018-09-15T07:20:01.232Z,77.10
2018-09-15T07:22:29.642Z,75.60
2018-09-15T07:24:58.067Z,74.70
2018-09-15T07:27:26.500Z,74.30
2018-09-15T07:29:54.911Z,74.90
2018-09-15T07:32:23.343Z,74.40
2018-09-15T07:34:51.804Z,73.70
2018-09-15T07:37:20.256Z,73.40
2018-09-15T07:39:48.695Z,73.30
2018-09-15T07:42:17.114Z,71.90
2018-09-15T07:44:45.582Z,72.70
2018-09-15T07:47:13.995Z,71.40
2018-09-15T07:49:42.407Z,72.10
2018-09-15T07:52:10.817Z,71.00
2018-09-15T07:54:39.321Z,69.80
2018-09-15T07:57:07.730Z,66.80
2018-09-15T07:59:36.174Z,64.80
2018-09-15T08:02:08.823Z,61.20
2018-09-15T08:04:37.282Z,61.80
2018-09-15T08:07:05.744Z,60.40
2018-09-15T08:09:34.196Z,61.00
2018-09-15T08:12:02.602Z,61.70
2018-09-15T08:14:31.020Z,61.40
2018-09-15T08:16:59.466Z,60.70
2018-09-15T08:19:28.746Z,60.60
2018-09-15T08:21:57.187Z,60.50
2018-09-15T08:24:25.690Z,59.70
2018-09-15T08:26:54.107Z,59.70
2018-09-15T08:29:22.558Z,59.10
2018-09-15T08:31:51.358Z,60.10
2018-09-15T08:34:19.807Z,58.60
2018-09-15T08:36:48.246Z,58.60
2018-09-15T08:39:16.686Z,58.90
2018-09-15T08:41:45.091Z,58.90
2018-09-15T08:44:13.588Z,59.50
2018-09-15T08:46:41.998Z,58.80
2018-09-15T08:49:10.614Z,58.80
2018-09-15T08:51:39.030Z,58.40
2018-09-15T08:54:07.458Z,59.30
2018-09-15T08:56:35.858Z,59.30
2018-09-15T08:59:04.308Z,59.80
2018-09-15T09:01:32.786Z,57.80
2018-09-15T09:04:01.265Z,58.10
2018-09-15T09:06:29.689Z,57.90
2018-09-15T09:08:58.125Z,58.20
2018-09-15T09:11:26.559Z,58.10
2018-09-15T09:13:54.994Z,57.70
2018-09-15T09:16:23.450Z,57.60
2018-09-15T09:18:51.871Z,56.80
2018-09-15T09:21:20.298Z,57.00
2018-09-15T09:23:48.702Z,57.60
2018-09-15T09:26:17.244Z,57.50
2018-09-15T09:28:45.542Z,57.00
2018-09-15T09:31:14.019Z,56.00
2018-09-15T09:33:42.735Z,54.70
2018-09-15T09:36:11.187Z,55.40
2018-09-15T09:38:39.676Z,55.10
2018-09-15T09:41:08.328Z,54.00
2018-09-15T09:43:36.758Z,54.40
2018-09-15T09:46:05.213Z,54.50
2018-09-15T09:48:33.658Z,54.10
2018-09-15T09:51:02.109Z,53.40
2018-09-15T09:53:30.518Z,54.70
2018-09-15T09:55:58.956Z,55.20
2018-09-15T09:58:27.404Z,55.20
2018-09-15T10:00:57.898Z,55.80
2018-09-15T10:03:26.510Z,55.20
2018-09-15T10:05:54.982Z,54.10
2018-09-15T10:08:23.395Z,54.90
2018-09-15T10:10:51.828Z,55.60
2018-09-15T10:13:20.248Z,54.20
2018-09-15T10:15:48.717Z,53.30
2018-09-15T10:18:17.155Z,52.90
2018-09-15T10:20:45.617Z,53.10
2018-09-15T10:23:14.098Z,53.50
2018-09-15T10:25:42.555Z,53.40
2018-09-15T10:28:10.966Z,53.30
2018-09-15T10:30:39.524Z,52.40
2018-09-15T10:33:07.961Z,52.40
2018-09-15T10:35:36.382Z,50.70
2018-09-15T10:38:04.866Z,50.70
2018-09-15T10:40:33.336Z,50.80
2018-09-15T10:43:01.764Z,50.30
2018-09-15T10:45:30.214Z,49.80
2018-09-15T10:47:58.627Z,49.50
2018-09-15T10:50:27.024Z,50.30
2018-09-15T10:52:55.490Z,51.10
2018-09-15T10:55:23.908Z,52.00
2018-09-15T10:57:52.347Z,52.70
2018-09-15T11:00:20.864Z,52.90
2018-09-15T11:02:49.279Z,52.10
2018-09-15T11:05:17.708Z,52.70
2018-09-15T11:07:46.159Z,52.30
2018-09-15T11:10:14.601Z,51.00
2018-09-15T11:12:43.050Z,51.90
2018-09-15T11:15:11.455Z,50.40
2018-09-15T11:17:39.979Z,50.70
2018-09-15T11:20:08.417Z,50.40
2018-09-15T11:22:36.935Z,51.30
2018-09-15T11:25:05.339Z,51.50
2018-09-15T11:27:33.779Z,51.60
2018-09-15T11:30:02.206Z,51.70
2018-09-15T11:32:30.670Z,51.40
2018-09-15T11:34:59.075Z,49.70
2018-09-15T11:37:27.510Z,49.70
2018-09-15T11:39:55.952Z,49.40
2018-09-15T11:42:24.437Z,47.90
2018-09-15T11:44:52.874Z,48.50
2018-09-15T11:47:21.316Z,48.30
2018-09-15T11:49:49.743Z,48.10
2018-09-15T11:52:18.243Z,47.90
2018-09-15T11:54:46.705Z,47.90
2018-09-15T11:57:15.217Z,48.70
2018-09-15T11:59:43.749Z,48.70
2018-09-15T12:02:12.206Z,48.90
2018-09-15T12:04:40.615Z,49.60
2018-09-15T12:07:09.158Z,48.80
2018-09-15T12:09:37.610Z,48.20
2018-09-15T12:12:06.072Z,48.00
2018-09-15T12:14:34.510Z,48.40
2018-09-15T12:17:02.930Z,47.60
2018-09-15T12:19:31.375Z,47.30
2018-09-15T12:21:59.823Z,47.50
2018-09-15T12:24:28.251Z,47.60
2018-09-15T12:26:56.666Z,47.60
2018-09-15T12:29:25.108Z,47.80
2018-09-15T12:31:53.519Z,47.60
2018-09-15T12:34:21.955Z,46.90
2018-09-15T12:36:50.366Z,48.00
2018-09-15T12:39:18.854Z,47.40
2018-09-15T12:41:47.279Z,47.30
2018-09-15T12:44:15.731Z,47.40
2018-09-15T12:46:44.183Z,47.40
2018-09-15T12:49:12.627Z,47.80
2018-09-15T12:51:41.147Z,47.40
2018-09-15T12:54:09.595Z,46.80
2018-09-15T12:56:38.026Z,47.70
2018-09-15T12:59:06.527Z,45.30
2018-09-15T13:01:34.987Z,46.40
2018-09-15T13:04:03.423Z,45.80
2018-09-15T13:06:31.974Z,45.40
2018-09-15T13:09:00.391Z,46.50
2018-09-15T13:11:28.853Z,45.70
2018-09-15T13:13:57.305Z,46.40
2018-09-15T13:16:25.754Z,44.70
2018-09-15T13:18:54.279Z,44.70
2018-09-15T13:21:22.730Z,44.40
2018-09-15T13:23:51.244Z,44.10
2018-09-15T13:26:19.686Z,43.70
2018-09-15T13:28:48.171Z,43.90
2018-09-15T13:31:16.603Z,43.40
2018-09-15T13:33:45.061Z,43.70
2018-09-15T13:36:13.516Z,43.40
2018-09-15T13:38:42.006Z,43.30
2018-09-15T13:41:10.447Z,44.20
2018-09-15T13:43:38.940Z,43.30
2018-09-15T13:46:07.447Z,43.80
2018-09-15T13:48:36.065Z,43.60
2018-09-15T13:51:04.866Z,43.70
2018-09-15T13:53:33.360Z,43.40
2018-09-15T13:56:01.827Z,44.30
2018-09-15T13:58:30.288Z,44.50
2018-09-15T14:00:58.767Z,44.40
2018-09-15T14:03:27.189Z,43.90
2018-09-15T14:05:55.782Z,44.30
2018-09-15T14:08:24.208Z,44.60
2018-09-15T14:10:52.683Z,44.50
2018-09-15T14:13:21.158Z,44.20
2018-09-15T14:15:49.579Z,43.30
2018-09-15T14:18:18.016Z,43.20
2018-09-15T14:20:46.492Z,42.30
2018-09-15T14:23:14.936Z,42.50
2018-09-15T14:25:43.484Z,42.80
2018-09-15T14:28:11.931Z,43.20
2018-09-15T14:30:40.382Z,43.30
2018-09-15T14:33:08.998Z,43.90
2018-09-15T14:35:37.638Z,44.80
2018-09-15T14:38:06.090Z,44.70
2018-09-15T14:40:34.567Z,44.70
2018-09-15T14:43:02.999Z,44.00
2018-09-15T14:45:31.427Z,44.30
2018-09-15T14:47:59.854Z,43.90
2018-09-15T14:50:28.305Z,43.80
2018-09-15T14:52:56.706Z,43.30
2018-09-15T14:55:25.157Z,43.70
2018-09-15T14:57:53.550Z,44.30
2018-09-15T15:00:22.005Z,44.90
2018-09-15T15:02:52.524Z,45.50
2018-09-15T15:05:20.979Z,45.10
2018-09-15T15:07:50.090Z,44.30
2018-09-15T15:10:18.551Z,44.20
2018-09-15T15:12:47.160Z,44.30
2018-09-15T15:15:15.714Z,45.00
2018-09-15T15:17:44.131Z,44.80
2018-09-15T15:20:12.546Z,45.00
2018-09-15T15:22:41.019Z,44.90
2018-09-15T15:25:09.472Z,45.40
2018-09-15T15:27:38.117Z,45.50
2018-09-15T15:30:06.898Z,45.60
2018-09-15T15:32:35.471Z,45.60
2018-09-15T15:35:03.976Z,45.60
2018-09-15T15:37:32.566Z,45.70
2018-09-15T15:40:00.936Z,45.40
2018-09-15T15:42:29.425Z,45.60
2018-09-15T15:44:57.860Z,46.00
2018-09-15T15:47:26.314Z,45.60
2018-09-15T15:49:54.750Z,45.50
2018-09-15T15:52:23.190Z,45.50
2018-09-15T15:54:51.601Z,45.30
2018-09-15T15:57:20.084Z,45.20
2018-09-15T15:59:48.510Z,45.70
2018-09-15T16:02:16.971Z,45.40
2018-09-15T16:04:45.382Z,45.10
2018-09-15T16:07:13.817Z,45.50
2018-09-15T16:09:42.222Z,45.70
2018-09-15T16:12:10.638Z,45.40
2018-09-15T16:14:39.060Z,45.50
2018-09-15T16:17:07.570Z,45.80
2018-09-15T16:19:35.979Z,45.70
2018-09-15T16:22:04.447Z,46.40
2018-09-15T16:24:32.851Z,46.40
2018-09-15T16:27:01.288Z,46.50
2018-09-15T16:29:29.716Z,46.30
2018-09-15T16:31:58.180Z,46.50
2018-09-15T16:34:26.584Z,46.60
2018-09-15T16:36:55.016Z,47.30
2018-09-15T16:39:23.447Z,46.90
2018-09-15T16:41:51.877Z,47.30
2018-09-15T16:44:20.354Z,47.60
2018-09-15T16:46:48.783Z,47.60
2018-09-15T16:49:17.245Z,47.90
2018-09-15T16:51:45.631Z,47.70
2018-09-15T16:54:14.074Z,48.10
2018-09-15T16:56:42.510Z,48.30
2018-09-15T16:59:10.968Z,48.50
2018-09-15T17:01:39.379Z,48.60
2018-09-15T17:04:07.887Z,49.10
2018-09-15T17:06:36.380Z,48.80
2018-09-15T17:09:08.030Z,48.80
2018-09-15T17:11:36.490Z,49.20
2018-09-15T17:14:04.947Z,49.70
2018-09-15T17:16:33.405Z,49.70
2018-09-15T17:19:01.821Z,49.70
2018-09-15T17:21:30.511Z,49.60
2018-09-15T17:23:58.950Z,49.50
2018-09-15T17:26:27.359Z,49.70
2018-09-15T17:28:55.786Z,50.40
2018-09-15T17:31:24.283Z,50.40
2018-09-15T17:33:52.674Z,50.80
2018-09-15T17:36:21.106Z,51.20
2018-09-15T17:38:49.542Z,51.20
2018-09-15T17:41:17.955Z,51.70
2018-09-15T17:43:46.438Z,52.50
2018-09-15T17:46:14.915Z,52.00
2018-09-15T17:48:43.351Z,52.00
2018-09-15T17:51:11.746Z,52.50
2018-09-15T17:53:40.188Z,52.80
2018-09-15T17:56:08.595Z,53.00
2018-09-15T17:58:37.038Z,53.30
2018-09-15T18:01:05.481Z,53.50
2018-09-15T18:03:33.951Z,53.80
2018-09-15T18:06:02.373Z,54.00
2018-09-15T18:08:30.790Z,54.00
2018-09-15T18:10:59.259Z,54.30
2018-09-15T18:13:27.670Z,54.50
2018-09-15T18:15:56.183Z,54.70
2018-09-15T18:18:24.632Z,55.00
2018-09-15T18:20:53.091Z,55.50
2018-09-15T18:23:21.579Z,55.70
2018-09-15T18:25:50.026Z,55.80
2018-09-15T18:28:18.457Z,56.10
2018-09-15T18:30:47.075Z,56.40
2018-09-15T18:33:15.525Z,56.30
2018-09-15T18:35:44.245Z,56.30
2018-09-15T18:38:12.716Z,56.20
2018-09-15T18:40:41.190Z,56.70
2018-09-15T18:43:09.631Z,57.40
2018-09-15T18:45:38.084Z,58.20
2018-09-15T18:48:06.356Z,58.70
2018-09-15T18:50:34.867Z,58.90
2018-09-15T18:53:03.303Z,58.00
2018-09-15T18:55:31.759Z,58.70
2018-09-15T18:58:00.207Z,59.20
2018-09-15T19:00:28.728Z,59.10
2018-09-15T19:02:57.122Z,59.40
2018-09-15T19:05:25.574Z,59.70
2018-09-15T19:07:54.022Z,59.70
2018-09-15T19:10:22.521Z,59.40
2018-09-15T19:12:50.951Z,60.20
2018-09-15T19:15:19.402Z,60.40
2018-09-15T19:17:47.855Z,60.60
2018-09-15T19:20:16.331Z,59.90
2018-09-15T19:22:44.793Z,59.70
2018-09-15T19:25:13.280Z,59.90
2018-09-15T19:27:41.706Z,60.00
2018-09-15T19:30:10.190Z,60.00
2018-09-15T19:32:38.684Z,60.80
2018-09-15T19:35:07.176Z,61.00
2018-09-15T19:37:35.645Z,60.00
2018-09-15T19:40:04.142Z,60.20
2018-09-15T19:42:32.607Z,60.70
2018-09-15T19:45:01.059Z,60.70
2018-09-15T19:47:29.500Z,61.40
2018-09-15T19:49:57.953Z,60.90
2018-09-15T19:52:26.490Z,61.00
2018-09-15T19:54:54.926Z,61.40
2018-09-15T19:57:23.383Z,61.20
2018-09-15T19:59:51.813Z,61.50
2018-09-15T20:02:20.297Z,61.40
2018-09-15T20:04:49.000Z,61.30
2018-09-15T20:07:17.466Z,63.10
2018-09-15T20:09:45.914Z,62.80
2018-09-15T20:12:14.360Z,62.50
2018-09-15T20:14:42.779Z,63.10
2018-09-15T20:17:10.131Z,63.10
2018-09-15T20:19:37.448Z,63.10
2018-09-15T20:22:06.851Z,63.10
2018-09-15T20:24:35.299Z,63.10
2018-09-15T20:27:03.766Z,63.00
2018-09-15T20:29:32.203Z,63.80
2018-09-15T20:32:00.655Z,62.90
2018-09-15T20:34:29.082Z,62.90
2018-09-15T20:36:57.534Z,62.90
2018-09-15T20:39:25.992Z,63.00
2018-09-15T20:41:54.450Z,62.90
2018-09-15T20:44:22.888Z,63.00
2018-09-15T20:46:51.368Z,64.40
2018-09-15T20:49:19.815Z,64.20
2018-09-15T20:51:48.297Z,65.80
2018-09-15T20:54:16.748Z,66.80
2018-09-15T20:56:45.188Z,66.40
2018-09-15T20:59:13.672Z,65.50
2018-09-15T21:01:42.129Z,66.20
2018-09-15T21:04:10.620Z,66.70
2018-09-15T21:06:39.083Z,67.40
2018-09-15T21:09:09.605Z,67.60
2018-09-15T21:11:38.111Z,67.90
2018-09-15T21:14:06.608Z,68.20
2018-09-15T21:16:35.073Z,67.90
2018-09-15T21:19:03.692Z,68.70
2018-09-15T21:21:32.168Z,68.90
2018-09-15T21:24:00.632Z,68.80
2018-09-15T21:26:29.311Z,68.80
2018-09-15T21:28:57.797Z,68.70
2018-09-15T21:31:26.250Z,68.80
2018-09-15T21:33:54.718Z,68.90
2018-09-15T21:36:23.175Z,69.90
2018-09-15T21:38:51.651Z,70.50
2018-09-15T21:41:20.104Z,70.50
2018-09-15T21:43:48.574Z,69.40
2018-09-15T21:46:17.057Z,70.40
2018-09-15T21:48:45.505Z,70.50
2018-09-15T21:51:13.936Z,70.30
2018-09-15T21:53:42.446Z,70.30
2018-09-15T21:56:10.858Z,70.30
2018-09-15T21:58:39.331Z,70.90
2018-09-15T22:01:07.840Z,70.80
2018-09-15T22:03:41.634Z,71.50
2018-09-15T22:06:10.081Z,71.70
2018-09-15T22:08:38.546Z,71.50
2018-09-15T22:11:07.244Z,71.80
2018-09-15T22:13:35.716Z,71.40
2018-09-15T22:16:04.197Z,72.50
2018-09-15T22:18:32.640Z,71.60
2018-09-15T22:21:01.152Z,71.60
2018-09-15T22:23:29.620Z,72.60
2018-09-15T22:25:58.093Z,73.50
2018-09-15T22:28:26.565Z,74.40
2018-09-15T22:30:55.124Z,74.10
2018-09-15T22:33:23.662Z,73.20
2018-09-15T22:35:52.126Z,73.60
2018-09-15T22:38:20.590Z,74.20
2018-09-15T22:40:49.139Z,74.70
2018-09-15T22:43:17.680Z,75.30
2018-09-15T22:45:46.151Z,75.80
2018-09-15T22:48:14.592Z,75.70
2018-09-15T22:50:43.060Z,75.70
2018-09-15T22:53:11.506Z,75.90
2018-09-15T22:55:40.095Z,76.70
2018-09-15T22:58:08.526Z,76.70
2018-09-15T23:00:37.086Z,76.40
2018-09-15T23:03:05.530Z,77.20
2018-09-15T23:05:33.984Z,76.90
2018-09-15T23:08:02.459Z,77.10
2018-09-15T23:10:30.885Z,77.50
2018-09-15T23:12:59.322Z,77.50
2018-09-15T23:15:27.780Z,77.40
2018-09-15T23:17:56.200Z,77.40
2018-09-15T23:20:24.735Z,77.40
2018-09-15T23:22:53.176Z,77.60
2018-09-15T23:25:21.622Z,78.10
2018-09-15T23:27:50.050Z,78.80
2018-09-15T23:30:18.501Z,78.80
2018-09-15T23:32:46.933Z,78.90
2018-09-15T23:35:15.406Z,79.20
2018-09-15T23:37:43.829Z,79.80
2018-09-15T23:40:12.338Z,80.40
2018-09-15T23:42:40.762Z,80.40
2018-09-15T23:45:09.211Z,80.70
2018-09-15T23:47:37.643Z,81.60
2018-09-15T23:50:06.991Z,82.50
2018-09-15T23:52:35.423Z,82.80
2018-09-15T23:55:03.981Z,82.80
2018-09-15T23:57:32.372Z,82.50
